sensor_id;sensor_type;location;lat;lon;timestamp;P1;durP1;ratioP1;P2;durP2;ratioP2
71368;SDS011;59175;53.214;5.728;2023-02-28T00:00:40;1.20;;;0.40;;
71368;SDS011;59175;53.214;5.728;2023-02-28T00:03:05;4.37;;;1.00;;
71368;SDS011;59175;53.214;5.728;2023-02-28T00:05:31;0.75;;;0.20;;
71368;SDS011;59175;53.214;5.728;2023-02-28T00:07:56;1.58;;;0.38;;
71368;SDS011;59175;53.214;5.728;2023-02-28T00:10:23;0.63;;;0.20;;
71368;SDS011;59175;53.214;5.728;2023-02-28T00:12:48;0.53;;;0.10;;
71368;SDS011;59175;53.214;5.728;2023-02-28T00:15:14;0.65;;;0.22;;
71368;SDS011;59175;53.214;5.728;2023-02-28T00:17:39;0.40;;;0.10;;
71368;SDS011;59175;53.214;5.728;2023-02-28T00:20:05;0.73;;;0.20;;
71368;SDS011;59175;53.214;5.728;2023-02-28T00:22:33;1.20;;;0.30;;
71368;SDS011;59175;53.214;5.728;2023-02-28T00:24:58;0.40;;;0.00;;
71368;SDS011;59175;53.214;5.728;2023-02-28T00:27:24;1.27;;;0.60;;
71368;SDS011;59175;53.214;5.728;2023-02-28T00:29:49;2.97;;;0.20;;
71368;SDS011;59175;53.214;5.728;2023-02-28T00:32:14;0.90;;;0.27;;
71368;SDS011;59175;53.214;5.728;2023-02-28T00:34:39;2.38;;;0.35;;
71368;SDS011;59175;53.214;5.728;2023-02-28T00:37:05;2.60;;;0.30;;
71368;SDS011;59175;53.214;5.728;2023-02-28T00:39:30;0.30;;;0.10;;
71368;SDS011;59175;53.214;5.728;2023-02-28T00:41:56;6.23;;;0.43;;
71368;SDS011;59175;53.214;5.728;2023-02-28T00:44:21;0.60;;;0.10;;
71368;SDS011;59175;53.214;5.728;2023-02-28T00:46:46;0.83;;;0.20;;
71368;SDS011;59175;53.214;5.728;2023-02-28T00:49:11;1.17;;;0.40;;
71368;SDS011;59175;53.214;5.728;2023-02-28T00:51:36;3.03;;;0.30;;
71368;SDS011;59175;53.214;5.728;2023-02-28T00:54:02;1.33;;;0.50;;
71368;SDS011;59175;53.214;5.728;2023-02-28T00:56:27;13.23;;;0.83;;
71368;SDS011;59175;53.214;5.728;2023-02-28T00:58:52;1.47;;;0.37;;
71368;SDS011;59175;53.214;5.728;2023-02-28T01:01:17;1.00;;;0.27;;
71368;SDS011;59175;53.214;5.728;2023-02-28T01:03:42;0.60;;;0.00;;
71368;SDS011;59175;53.214;5.728;2023-02-28T01:06:08;2.77;;;0.47;;
71368;SDS011;59175;53.214;5.728;2023-02-28T01:08:33;0.70;;;0.30;;
71368;SDS011;59175;53.214;5.728;2023-02-28T01:11:06;0.97;;;0.10;;
71368;SDS011;59175;53.214;5.728;2023-02-28T01:13:31;2.43;;;0.50;;
71368;SDS011;59175;53.214;5.728;2023-02-28T01:15:56;0.55;;;0.13;;
71368;SDS011;59175;53.214;5.728;2023-02-28T01:18:22;1.38;;;0.63;;
71368;SDS011;59175;53.214;5.728;2023-02-28T01:20:48;0.77;;;0.10;;
71368;SDS011;59175;53.214;5.728;2023-02-28T01:23:13;2.30;;;1.20;;
71368;SDS011;59175;53.214;5.728;2023-02-28T01:25:39;0.80;;;0.30;;
71368;SDS011;59175;53.214;5.728;2023-02-28T01:28:04;1.73;;;0.28;;
71368;SDS011;59175;53.214;5.728;2023-02-28T01:30:30;0.80;;;0.20;;
71368;SDS011;59175;53.214;5.728;2023-02-28T01:32:56;3.60;;;0.60;;
71368;SDS011;59175;53.214;5.728;2023-02-28T01:35:21;1.43;;;0.37;;
71368;SDS011;59175;53.214;5.728;2023-02-28T01:37:46;2.63;;;0.57;;
71368;SDS011;59175;53.214;5.728;2023-02-28T01:40:12;1.53;;;0.60;;
71368;SDS011;59175;53.214;5.728;2023-02-28T01:42:37;2.20;;;0.88;;
71368;SDS011;59175;53.214;5.728;2023-02-28T01:45:19;1.03;;;0.30;;
71368;SDS011;59175;53.214;5.728;2023-02-28T01:47:46;11.23;;;0.40;;
71368;SDS011;59175;53.214;5.728;2023-02-28T01:50:14;3.17;;;0.73;;
71368;SDS011;59175;53.214;5.728;2023-02-28T01:52:41;0.45;;;0.20;;
71368;SDS011;59175;53.214;5.728;2023-02-28T01:55:07;1.43;;;0.40;;
71368;SDS011;59175;53.214;5.728;2023-02-28T01:57:34;3.90;;;0.22;;
71368;SDS011;59175;53.214;5.728;2023-02-28T02:00:12;6.63;;;0.60;;
71368;SDS011;59175;53.214;5.728;2023-02-28T02:02:38;0.30;;;0.00;;
71368;SDS011;59175;53.214;5.728;2023-02-28T02:05:07;0.43;;;0.10;;
71368;SDS011;59175;53.214;5.728;2023-02-28T02:07:37;0.68;;;0.47;;
71368;SDS011;59175;53.214;5.728;2023-02-28T02:17:48;2.47;;;0.23;;
71368;SDS011;59175;53.214;5.728;2023-02-28T02:38:49;1.23;;;0.03;;
71368;SDS011;59175;53.214;5.728;2023-02-28T02:41:18;0.30;;;0.10;;
71368;SDS011;59175;53.214;5.728;2023-02-28T02:43:49;0.28;;;0.10;;
71368;SDS011;59175;53.214;5.728;2023-02-28T02:48:43;1.25;;;0.40;;
71368;SDS011;59175;53.214;5.728;2023-02-28T02:51:11;1.35;;;0.40;;
71368;SDS011;59175;53.214;5.728;2023-02-28T02:53:40;0.97;;;0.20;;
71368;SDS011;59175;53.214;5.728;2023-02-28T02:56:07;3.17;;;0.40;;
71368;SDS011;59175;53.214;5.728;2023-02-28T02:58:33;0.93;;;0.22;;
71368;SDS011;59175;53.214;5.728;2023-02-28T03:01:01;0.50;;;0.07;;
71368;SDS011;59175;53.214;5.728;2023-02-28T03:03:27;0.65;;;0.20;;
71368;SDS011;59175;53.214;5.728;2023-02-28T03:05:56;1.05;;;0.20;;
71368;SDS011;59175;53.214;5.728;2023-02-28T03:08:22;0.43;;;0.10;;
71368;SDS011;59175;53.214;5.728;2023-02-28T03:10:51;0.80;;;0.17;;
71368;SDS011;59175;53.214;5.728;2023-02-28T03:15:58;1.65;;;0.47;;
71368;SDS011;59175;53.214;5.728;2023-02-28T03:23:42;0.43;;;0.10;;
71368;SDS011;59175;53.214;5.728;2023-02-28T03:26:19;0.40;;;0.00;;
71368;SDS011;59175;53.214;5.728;2023-02-28T03:31:19;0.63;;;0.22;;
71368;SDS011;59175;53.214;5.728;2023-02-28T03:33:47;0.40;;;0.10;;
71368;SDS011;59175;53.214;5.728;2023-02-28T03:36:20;1.27;;;0.25;;
71368;SDS011;59175;53.214;5.728;2023-02-28T03:38:51;0.40;;;0.05;;
71368;SDS011;59175;53.214;5.728;2023-02-28T03:43:56;1.38;;;0.20;;
71368;SDS011;59175;53.214;5.728;2023-02-28T03:46:23;0.40;;;0.10;;
71368;SDS011;59175;53.214;5.728;2023-02-28T03:48:57;0.50;;;0.20;;
71368;SDS011;59175;53.214;5.728;2023-02-28T03:51:25;1.83;;;0.40;;
71368;SDS011;59175;53.214;5.728;2023-02-28T03:53:52;0.10;;;0.00;;
71368;SDS011;59175;53.214;5.728;2023-02-28T03:56:19;0.90;;;0.20;;
71368;SDS011;59175;53.214;5.728;2023-02-28T03:58:51;0.40;;;0.15;;
71368;SDS011;59175;53.214;5.728;2023-02-28T04:01:20;0.50;;;0.20;;
71368;SDS011;59175;53.214;5.728;2023-02-28T04:03:46;0.70;;;0.10;;
71368;SDS011;59175;53.214;5.728;2023-02-28T04:06:16;0.25;;;0.05;;
71368;SDS011;59175;53.214;5.728;2023-02-28T04:08:42;0.25;;;0.17;;
71368;SDS011;59175;53.214;5.728;2023-02-28T04:11:12;0.00;;;0.00;;
71368;SDS011;59175;53.214;5.728;2023-02-28T04:13:41;0.00;;;0.00;;
71368;SDS011;59175;53.214;5.728;2023-02-28T04:16:07;0.10;;;0.00;;
71368;SDS011;59175;53.214;5.728;2023-02-28T04:18:37;0.55;;;0.08;;
71368;SDS011;59175;53.214;5.728;2023-02-28T04:21:02;0.23;;;0.00;;
71368;SDS011;59175;53.214;5.728;2023-02-28T04:23:27;0.77;;;0.00;;
71368;SDS011;59175;53.214;5.728;2023-02-28T04:25:54;0.67;;;0.10;;
71368;SDS011;59175;53.214;5.728;2023-02-28T04:28:19;2.08;;;0.20;;
71368;SDS011;59175;53.214;5.728;2023-02-28T04:30:44;0.43;;;0.13;;
71368;SDS011;59175;53.214;5.728;2023-02-28T04:33:10;0.47;;;0.00;;
71368;SDS011;59175;53.214;5.728;2023-02-28T04:35:35;0.60;;;0.10;;
71368;SDS011;59175;53.214;5.728;2023-02-28T04:38:00;0.00;;;0.00;;
71368;SDS011;59175;53.214;5.728;2023-02-28T04:40:25;0.97;;;0.37;;
71368;SDS011;59175;53.214;5.728;2023-02-28T04:42:50;1.33;;;1.13;;
71368;SDS011;59175;53.214;5.728;2023-02-28T04:45:16;0.57;;;0.13;;
71368;SDS011;59175;53.214;5.728;2023-02-28T04:47:42;1.15;;;0.00;;
71368;SDS011;59175;53.214;5.728;2023-02-28T04:50:07;0.93;;;0.33;;
71368;SDS011;59175;53.214;5.728;2023-02-28T04:52:33;0.43;;;0.10;;
71368;SDS011;59175;53.214;5.728;2023-02-28T04:54:58;1.02;;;0.32;;
71368;SDS011;59175;53.214;5.728;2023-02-28T04:57:24;0.63;;;0.10;;
71368;SDS011;59175;53.214;5.728;2023-02-28T04:59:49;0.10;;;0.00;;
71368;SDS011;59175;53.214;5.728;2023-02-28T05:02:14;0.10;;;0.00;;
71368;SDS011;59175;53.214;5.728;2023-02-28T05:04:39;1.60;;;0.20;;
71368;SDS011;59175;53.214;5.728;2023-02-28T05:07:05;0.00;;;0.00;;
71368;SDS011;59175;53.214;5.728;2023-02-28T05:09:30;0.50;;;0.10;;
71368;SDS011;59175;53.214;5.728;2023-02-28T05:11:55;0.30;;;0.03;;
71368;SDS011;59175;53.214;5.728;2023-02-28T05:14:21;12.20;;;0.30;;
71368;SDS011;59175;53.214;5.728;2023-02-28T05:16:46;1.17;;;0.20;;
71368;SDS011;59175;53.214;5.728;2023-02-28T05:19:11;2.20;;;0.20;;
71368;SDS011;59175;53.214;5.728;2023-02-28T05:21:41;0.80;;;0.10;;
71368;SDS011;59175;53.214;5.728;2023-02-28T05:24:08;0.88;;;0.17;;
71368;SDS011;59175;53.214;5.728;2023-02-28T05:26:38;0.68;;;0.00;;
71368;SDS011;59175;53.214;5.728;2023-02-28T05:29:03;0.20;;;0.00;;
71368;SDS011;59175;53.214;5.728;2023-02-28T05:31:28;0.63;;;0.00;;
71368;SDS011;59175;53.214;5.728;2023-02-28T05:33:53;0.70;;;0.00;;
71368;SDS011;59175;53.214;5.728;2023-02-28T05:36:19;0.43;;;0.07;;
71368;SDS011;59175;53.214;5.728;2023-02-28T05:38:48;0.80;;;0.13;;
71368;SDS011;59175;53.214;5.728;2023-02-28T05:41:13;0.95;;;0.10;;
71368;SDS011;59175;53.214;5.728;2023-02-28T05:43:39;0.10;;;0.00;;
71368;SDS011;59175;53.214;5.728;2023-02-28T05:46:05;0.00;;;0.00;;
71368;SDS011;59175;53.214;5.728;2023-02-28T05:48:30;0.80;;;0.22;;
71368;SDS011;59175;53.214;5.728;2023-02-28T05:50:56;0.27;;;0.07;;
71368;SDS011;59175;53.214;5.728;2023-02-28T05:53:22;0.93;;;0.10;;
71368;SDS011;59175;53.214;5.728;2023-02-28T05:55:47;9.93;;;0.40;;
71368;SDS011;59175;53.214;5.728;2023-02-28T05:58:12;0.33;;;0.10;;
71368;SDS011;59175;53.214;5.728;2023-02-28T06:00:37;0.83;;;0.13;;
71368;SDS011;59175;53.214;5.728;2023-02-28T06:03:03;2.00;;;0.30;;
71368;SDS011;59175;53.214;5.728;2023-02-28T06:05:28;0.70;;;0.00;;
71368;SDS011;59175;53.214;5.728;2023-02-28T06:07:53;0.67;;;0.00;;
71368;SDS011;59175;53.214;5.728;2023-02-28T06:10:18;10.43;;;0.50;;
71368;SDS011;59175;53.214;5.728;2023-02-28T06:12:44;2.17;;;0.57;;
71368;SDS011;59175;53.214;5.728;2023-02-28T06:15:13;0.75;;;0.38;;
71368;SDS011;59175;53.214;5.728;2023-02-28T06:17:39;1.95;;;0.30;;
71368;SDS011;59175;53.214;5.728;2023-02-28T06:20:05;4.53;;;0.73;;
71368;SDS011;59175;53.214;5.728;2023-02-28T06:22:30;0.20;;;0.00;;
71368;SDS011;59175;53.214;5.728;2023-02-28T06:24:56;4.13;;;0.40;;
71368;SDS011;59175;53.214;5.728;2023-02-28T06:27:22;2.25;;;0.10;;
71368;SDS011;59175;53.214;5.728;2023-02-28T06:29:48;3.77;;;0.47;;
71368;SDS011;59175;53.214;5.728;2023-02-28T06:32:13;1.73;;;0.50;;
71368;SDS011;59175;53.214;5.728;2023-02-28T06:34:38;3.57;;;0.27;;
71368;SDS011;59175;53.214;5.728;2023-02-28T06:37:03;3.90;;;0.30;;
71368;SDS011;59175;53.214;5.728;2023-02-28T06:39:31;0.70;;;0.20;;
71368;SDS011;59175;53.214;5.728;2023-02-28T06:41:57;3.60;;;0.47;;
71368;SDS011;59175;53.214;5.728;2023-02-28T06:44:22;3.93;;;1.00;;
71368;SDS011;59175;53.214;5.728;2023-02-28T06:46:48;4.90;;;1.25;;
71368;SDS011;59175;53.214;5.728;2023-02-28T06:49:13;3.07;;;0.40;;
71368;SDS011;59175;53.214;5.728;2023-02-28T06:51:40;2.17;;;0.50;;
71368;SDS011;59175;53.214;5.728;2023-02-28T06:54:06;4.50;;;1.25;;
71368;SDS011;59175;53.214;5.728;2023-02-28T06:56:34;3.13;;;0.88;;
71368;SDS011;59175;53.214;5.728;2023-02-28T06:58:59;1.07;;;0.30;;
71368;SDS011;59175;53.214;5.728;2023-02-28T07:01:24;3.10;;;0.57;;
71368;SDS011;59175;53.214;5.728;2023-02-28T07:03:50;3.70;;;0.63;;
71368;SDS011;59175;53.214;5.728;2023-02-28T07:06:17;3.42;;;0.55;;
71368;SDS011;59175;53.214;5.728;2023-02-28T07:08:42;2.47;;;0.73;;
71368;SDS011;59175;53.214;5.728;2023-02-28T07:11:08;1.53;;;0.50;;
71368;SDS011;59175;53.214;5.728;2023-02-28T07:13:33;5.33;;;1.33;;
71368;SDS011;59175;53.214;5.728;2023-02-28T07:16:00;4.57;;;1.43;;
71368;SDS011;59175;53.214;5.728;2023-02-28T07:18:25;3.58;;;1.33;;
71368;SDS011;59175;53.214;5.728;2023-02-28T07:20:50;4.07;;;1.47;;
71368;SDS011;59175;53.214;5.728;2023-02-28T07:23:16;2.03;;;0.83;;
71368;SDS011;59175;53.214;5.728;2023-02-28T07:25:41;5.53;;;1.40;;
71368;SDS011;59175;53.214;5.728;2023-02-28T07:28:06;5.17;;;1.20;;
71368;SDS011;59175;53.214;5.728;2023-02-28T07:30:32;2.67;;;0.57;;
71368;SDS011;59175;53.214;5.728;2023-02-28T07:32:57;2.27;;;0.77;;
71368;SDS011;59175;53.214;5.728;2023-02-28T07:35:22;3.23;;;1.10;;
71368;SDS011;59175;53.214;5.728;2023-02-28T07:37:48;4.13;;;1.30;;
71368;SDS011;59175;53.214;5.728;2023-02-28T07:40:13;3.30;;;1.10;;
71368;SDS011;59175;53.214;5.728;2023-02-28T07:42:39;3.40;;;0.93;;
71368;SDS011;59175;53.214;5.728;2023-02-28T07:45:05;5.72;;;2.60;;
71368;SDS011;59175;53.214;5.728;2023-02-28T07:47:30;5.37;;;1.60;;
71368;SDS011;59175;53.214;5.728;2023-02-28T07:49:56;3.90;;;1.00;;
71368;SDS011;59175;53.214;5.728;2023-02-28T07:52:21;5.80;;;1.43;;
71368;SDS011;59175;53.214;5.728;2023-02-28T07:54:48;5.40;;;2.15;;
71368;SDS011;59175;53.214;5.728;2023-02-28T07:57:13;4.87;;;1.20;;
71368;SDS011;59175;53.214;5.728;2023-02-28T07:59:38;4.60;;;1.37;;
71368;SDS011;59175;53.214;5.728;2023-02-28T08:02:04;2.42;;;0.90;;
71368;SDS011;59175;53.214;5.728;2023-02-28T08:04:31;3.87;;;1.47;;
71368;SDS011;59175;53.214;5.728;2023-02-28T08:06:56;3.97;;;0.77;;
71368;SDS011;59175;53.214;5.728;2023-02-28T08:09:21;1.95;;;0.80;;
71368;SDS011;59175;53.214;5.728;2023-02-28T08:11:47;2.70;;;0.90;;
71368;SDS011;59175;53.214;5.728;2023-02-28T08:14:12;3.10;;;1.23;;
71368;SDS011;59175;53.214;5.728;2023-02-28T08:16:37;3.43;;;1.23;;
71368;SDS011;59175;53.214;5.728;2023-02-28T08:19:03;3.10;;;0.80;;
71368;SDS011;59175;53.214;5.728;2023-02-28T08:21:29;4.40;;;1.43;;
71368;SDS011;59175;53.214;5.728;2023-02-28T08:23:54;3.73;;;1.30;;
71368;SDS011;59175;53.214;5.728;2023-02-28T08:26:19;3.40;;;0.80;;
71368;SDS011;59175;53.214;5.728;2023-02-28T08:28:45;3.83;;;1.60;;
71368;SDS011;59175;53.214;5.728;2023-02-28T08:31:11;3.77;;;1.20;;
71368;SDS011;59175;53.214;5.728;2023-02-28T08:33:37;8.10;;;1.10;;
71368;SDS011;59175;53.214;5.728;2023-02-28T08:36:04;8.53;;;1.73;;
71368;SDS011;59175;53.214;5.728;2023-02-28T08:38:29;4.22;;;1.42;;
71368;SDS011;59175;53.214;5.728;2023-02-28T08:40:58;4.97;;;1.53;;
71368;SDS011;59175;53.214;5.728;2023-02-28T08:43:23;8.07;;;1.63;;
71368;SDS011;59175;53.214;5.728;2023-02-28T08:45:51;4.10;;;1.70;;
71368;SDS011;59175;53.214;5.728;2023-02-28T08:48:16;7.65;;;2.28;;
71368;SDS011;59175;53.214;5.728;2023-02-28T08:50:41;4.47;;;1.70;;
71368;SDS011;59175;53.214;5.728;2023-02-28T08:53:06;6.30;;;1.90;;
71368;SDS011;59175;53.214;5.728;2023-02-28T08:55:31;6.10;;;1.80;;
71368;SDS011;59175;53.214;5.728;2023-02-28T08:57:57;9.20;;;2.57;;
71368;SDS011;59175;53.214;5.728;2023-02-28T09:00:23;3.22;;;1.05;;
71368;SDS011;59175;53.214;5.728;2023-02-28T09:02:48;4.43;;;1.77;;
71368;SDS011;59175;53.214;5.728;2023-02-28T09:05:13;10.67;;;4.67;;
71368;SDS011;59175;53.214;5.728;2023-02-28T09:07:38;7.07;;;3.60;;
71368;SDS011;59175;53.214;5.728;2023-02-28T09:10:04;5.57;;;2.10;;
71368;SDS011;59175;53.214;5.728;2023-02-28T09:12:32;5.13;;;1.63;;
71368;SDS011;59175;53.214;5.728;2023-02-28T09:14:58;5.85;;;1.65;;
71368;SDS011;59175;53.214;5.728;2023-02-28T09:17:23;4.83;;;1.77;;
71368;SDS011;59175;53.214;5.728;2023-02-28T09:19:48;4.23;;;1.20;;
71368;SDS011;59175;53.214;5.728;2023-02-28T09:22:14;6.63;;;2.50;;
71368;SDS011;59175;53.214;5.728;2023-02-28T09:24:39;6.53;;;1.90;;
71368;SDS011;59175;53.214;5.728;2023-02-28T09:27:04;3.40;;;1.17;;
71368;SDS011;59175;53.214;5.728;2023-02-28T09:29:30;5.50;;;1.70;;
71368;SDS011;59175;53.214;5.728;2023-02-28T09:31:55;7.80;;;3.50;;
71368;SDS011;59175;53.214;5.728;2023-02-28T09:34:23;8.32;;;1.85;;
71368;SDS011;59175;53.214;5.728;2023-02-28T09:36:48;9.27;;;2.27;;
71368;SDS011;59175;53.214;5.728;2023-02-28T09:39:15;8.27;;;2.13;;
71368;SDS011;59175;53.214;5.728;2023-02-28T09:41:42;7.60;;;2.17;;
71368;SDS011;59175;53.214;5.728;2023-02-28T09:44:36;6.47;;;1.90;;
71368;SDS011;59175;53.214;5.728;2023-02-28T09:47:01;7.95;;;2.28;;
71368;SDS011;59175;53.214;5.728;2023-02-28T09:49:34;20.47;;;7.47;;
71368;SDS011;59175;53.214;5.728;2023-02-28T09:52:07;89.25;;;31.75;;
71368;SDS011;59175;53.214;5.728;2023-02-28T09:54:34;120.68;;;38.90;;
71368;SDS011;59175;53.214;5.728;2023-02-28T10:05:07;8.63;;;3.20;;
71368;SDS011;59175;53.214;5.728;2023-02-28T10:10:02;5.10;;;1.90;;
71368;SDS011;59175;53.214;5.728;2023-02-28T10:12:29;7.07;;;2.33;;
71368;SDS011;59175;53.214;5.728;2023-02-28T10:14:55;5.75;;;1.90;;
71368;SDS011;59175;53.214;5.728;2023-02-28T10:17:27;6.68;;;2.03;;
71368;SDS011;59175;53.214;5.728;2023-02-28T10:24:52;4.20;;;1.40;;
71368;SDS011;59175;53.214;5.728;2023-02-28T10:27:21;4.73;;;1.50;;
71368;SDS011;59175;53.214;5.728;2023-02-28T10:29:56;5.18;;;1.75;;
71368;SDS011;59175;53.214;5.728;2023-02-28T10:32:26;7.93;;;1.95;;
71368;SDS011;59175;53.214;5.728;2023-02-28T10:35:09;4.55;;;1.52;;
71368;SDS011;59175;53.214;5.728;2023-02-28T10:37:38;5.97;;;2.27;;
71368;SDS011;59175;53.214;5.728;2023-02-28T10:40:26;4.28;;;1.83;;
71368;SDS011;59175;53.214;5.728;2023-02-28T10:42:59;5.25;;;1.70;;
71368;SDS011;59175;53.214;5.728;2023-02-28T10:45:25;5.40;;;1.55;;
71368;SDS011;59175;53.214;5.728;2023-02-28T10:47:55;6.00;;;1.40;;
71368;SDS011;59175;53.214;5.728;2023-02-28T10:52:57;4.93;;;1.20;;
71368;SDS011;59175;53.214;5.728;2023-02-28T10:55:30;3.67;;;0.93;;
71368;SDS011;59175;53.214;5.728;2023-02-28T10:57:56;4.70;;;1.25;;
71368;SDS011;59175;53.214;5.728;2023-02-28T11:00:22;4.63;;;1.20;;
71368;SDS011;59175;53.214;5.728;2023-02-28T11:02:48;3.97;;;1.23;;
71368;SDS011;59175;53.214;5.728;2023-02-28T11:07:55;5.22;;;1.70;;
71368;SDS011;59175;53.214;5.728;2023-02-28T11:10:21;6.13;;;1.50;;
71368;SDS011;59175;53.214;5.728;2023-02-28T11:12:49;7.50;;;1.45;;
71368;SDS011;59175;53.214;5.728;2023-02-28T11:17:50;4.63;;;1.27;;
71368;SDS011;59175;53.214;5.728;2023-02-28T11:20:20;6.13;;;1.33;;
71368;SDS011;59175;53.214;5.728;2023-02-28T11:22:46;6.95;;;0.85;;
71368;SDS011;59175;53.214;5.728;2023-02-28T11:25:19;4.63;;;0.98;;
71368;SDS011;59175;53.214;5.728;2023-02-28T11:27:46;3.27;;;1.17;;
71368;SDS011;59175;53.214;5.728;2023-02-28T11:30:34;3.15;;;1.13;;
71368;SDS011;59175;53.214;5.728;2023-02-28T11:32:58;3.28;;;1.15;;
71368;SDS011;59175;53.214;5.728;2023-02-28T11:35:32;4.88;;;1.48;;
71368;SDS011;59175;53.214;5.728;2023-02-28T11:37:59;5.93;;;1.00;;
71368;SDS011;59175;53.214;5.728;2023-02-28T11:40:28;5.65;;;1.48;;
71368;SDS011;59175;53.214;5.728;2023-02-28T11:43:01;3.10;;;1.03;;
71368;SDS011;59175;53.214;5.728;2023-02-28T11:45:44;5.07;;;0.98;;
71368;SDS011;59175;53.214;5.728;2023-02-28T11:48:14;4.53;;;1.02;;
71368;SDS011;59175;53.214;5.728;2023-02-28T11:55:39;6.43;;;1.43;;
71368;SDS011;59175;53.214;5.728;2023-02-28T12:03:25;3.90;;;1.10;;
71368;SDS011;59175;53.214;5.728;2023-02-28T12:11:02;2.35;;;0.70;;
71368;SDS011;59175;53.214;5.728;2023-02-28T12:13:40;3.08;;;1.20;;
71368;SDS011;59175;53.214;5.728;2023-02-28T12:26:48;4.43;;;1.05;;
71368;SDS011;59175;53.214;5.728;2023-02-28T12:31:52;4.43;;;0.90;;
71368;SDS011;59175;53.214;5.728;2023-02-28T12:34:19;7.47;;;1.70;;
71368;SDS011;59175;53.214;5.728;2023-02-28T12:36:45;5.03;;;1.30;;
71368;SDS011;59175;53.214;5.728;2023-02-28T12:39:31;2.15;;;0.60;;
71368;SDS011;59175;53.214;5.728;2023-02-28T12:42:10;3.95;;;0.98;;
71368;SDS011;59175;53.214;5.728;2023-02-28T12:44:48;12.98;;;3.17;;
71368;SDS011;59175;53.214;5.728;2023-02-28T12:47:16;2.83;;;0.60;;
71368;SDS011;59175;53.214;5.728;2023-02-28T12:49:46;3.00;;;0.60;;
71368;SDS011;59175;53.214;5.728;2023-02-28T12:52:13;2.08;;;0.60;;
71368;SDS011;59175;53.214;5.728;2023-02-28T12:54:46;3.58;;;1.08;;
71368;SDS011;59175;53.214;5.728;2023-02-28T12:57:16;3.35;;;1.40;;
71368;SDS011;59175;53.214;5.728;2023-02-28T12:59:48;1.07;;;0.20;;
71368;SDS011;59175;53.214;5.728;2023-02-28T13:09:56;0.82;;;0.17;;
71368;SDS011;59175;53.214;5.728;2023-02-28T13:12:23;4.55;;;1.02;;
71368;SDS011;59175;53.214;5.728;2023-02-28T13:14:49;2.37;;;0.50;;
71368;SDS011;59175;53.214;5.728;2023-02-28T13:17:19;3.33;;;1.02;;
71368;SDS011;59175;53.214;5.728;2023-02-28T13:19:45;3.15;;;1.10;;
71368;SDS011;59175;53.214;5.728;2023-02-28T13:22:16;2.75;;;0.70;;
71368;SDS011;59175;53.214;5.728;2023-02-28T13:24:44;2.90;;;0.77;;
71368;SDS011;59175;53.214;5.728;2023-02-28T13:27:11;2.37;;;0.73;;
71368;SDS011;59175;53.214;5.728;2023-02-28T13:29:37;4.13;;;0.63;;
71368;SDS011;59175;53.214;5.728;2023-02-28T13:52:48;1.83;;;0.43;;
71368;SDS011;59175;53.214;5.728;2023-02-28T13:55:24;3.50;;;0.70;;
71368;SDS011;59175;53.214;5.728;2023-02-28T14:05:30;2.55;;;0.63;;
71368;SDS011;59175;53.214;5.728;2023-02-28T14:07:58;4.47;;;0.77;;
71368;SDS011;59175;53.214;5.728;2023-02-28T14:10:28;8.03;;;1.10;;
71368;SDS011;59175;53.214;5.728;2023-02-28T14:12:56;2.22;;;0.68;;
71368;SDS011;59175;53.214;5.728;2023-02-28T14:18:05;7.47;;;1.33;;
71368;SDS011;59175;53.214;5.728;2023-02-28T14:20:31;2.40;;;0.73;;
71368;SDS011;59175;53.214;5.728;2023-02-28T14:31:35;2.85;;;0.73;;
71368;SDS011;59175;53.214;5.728;2023-02-28T14:34:22;7.50;;;3.72;;
71368;SDS011;59175;53.214;5.728;2023-02-28T14:36:49;9.30;;;2.47;;
71368;SDS011;59175;53.214;5.728;2023-02-28T14:39:16;4.00;;;0.60;;
71368;SDS011;59175;53.214;5.728;2023-02-28T14:41:43;5.22;;;1.50;;
71368;SDS011;59175;53.214;5.728;2023-02-28T14:44:21;3.63;;;1.03;;
71368;SDS011;59175;53.214;5.728;2023-02-28T14:46:57;3.35;;;1.30;;
71368;SDS011;59175;53.214;5.728;2023-02-28T14:49:29;3.13;;;0.82;;
71368;SDS011;59175;53.214;5.728;2023-02-28T14:54:39;5.38;;;1.50;;
71368;SDS011;59175;53.214;5.728;2023-02-28T14:57:04;2.90;;;0.97;;
71368;SDS011;59175;53.214;5.728;2023-02-28T14:59:31;3.37;;;1.17;;
71368;SDS011;59175;53.214;5.728;2023-02-28T15:04:41;2.65;;;0.73;;
71368;SDS011;59175;53.214;5.728;2023-02-28T15:07:10;3.97;;;0.60;;
71368;SDS011;59175;53.214;5.728;2023-02-28T15:09:36;4.82;;;1.05;;
71368;SDS011;59175;53.214;5.728;2023-02-28T15:12:01;2.83;;;0.57;;
71368;SDS011;59175;53.214;5.728;2023-02-28T15:14:26;3.47;;;0.83;;
71368;SDS011;59175;53.214;5.728;2023-02-28T15:16:55;2.13;;;0.52;;
71368;SDS011;59175;53.214;5.728;2023-02-28T15:19:23;3.33;;;0.65;;
71368;SDS011;59175;53.214;5.728;2023-02-28T15:21:51;2.13;;;0.45;;
71368;SDS011;59175;53.214;5.728;2023-02-28T15:27:03;4.00;;;0.75;;
71368;SDS011;59175;53.214;5.728;2023-02-28T15:29:30;3.53;;;0.82;;
71368;SDS011;59175;53.214;5.728;2023-02-28T15:32:01;2.97;;;0.55;;
71368;SDS011;59175;53.214;5.728;2023-02-28T15:34:27;3.13;;;0.68;;
71368;SDS011;59175;53.214;5.728;2023-02-28T15:36:53;2.70;;;0.87;;
71368;SDS011;59175;53.214;5.728;2023-02-28T15:39:20;2.40;;;0.57;;
71368;SDS011;59175;53.214;5.728;2023-02-28T15:41:46;1.52;;;0.32;;
71368;SDS011;59175;53.214;5.728;2023-02-28T15:44:25;2.90;;;0.77;;
71368;SDS011;59175;53.214;5.728;2023-02-28T15:47:02;1.58;;;0.47;;
71368;SDS011;59175;53.214;5.728;2023-02-28T15:49:29;2.92;;;0.50;;
71368;SDS011;59175;53.214;5.728;2023-02-28T15:51:55;1.30;;;0.30;;
71368;SDS011;59175;53.214;5.728;2023-02-28T15:54:23;3.77;;;0.80;;
71368;SDS011;59175;53.214;5.728;2023-02-28T15:56:52;1.55;;;0.47;;
71368;SDS011;59175;53.214;5.728;2023-02-28T15:59:23;2.58;;;0.60;;
71368;SDS011;59175;53.214;5.728;2023-02-28T16:07:24;3.40;;;0.40;;
71368;SDS011;59175;53.214;5.728;2023-02-28T16:09:50;2.27;;;0.40;;
71368;SDS011;59175;53.214;5.728;2023-02-28T16:12:15;1.67;;;0.20;;
71368;SDS011;59175;53.214;5.728;2023-02-28T16:14:40;1.43;;;0.20;;
71368;SDS011;59175;53.214;5.728;2023-02-28T16:20:22;2.07;;;0.43;;
71368;SDS011;59175;53.214;5.728;2023-02-28T16:22:48;1.58;;;0.60;;
71368;SDS011;59175;53.214;5.728;2023-02-28T16:25:13;2.37;;;0.40;;
71368;SDS011;59175;53.214;5.728;2023-02-28T16:27:38;3.65;;;1.15;;
71368;SDS011;59175;53.214;5.728;2023-02-28T16:30:05;2.63;;;0.97;;
71368;SDS011;59175;53.214;5.728;2023-02-28T16:32:30;2.67;;;1.23;;
71368;SDS011;59175;53.214;5.728;2023-02-28T16:34:56;1.13;;;0.40;;
71368;SDS011;59175;53.214;5.728;2023-02-28T16:37:21;1.90;;;0.73;;
71368;SDS011;59175;53.214;5.728;2023-02-28T16:39:47;0.73;;;0.50;;
71368;SDS011;59175;53.214;5.728;2023-02-28T16:42:17;0.40;;;0.20;;
71368;SDS011;59175;53.214;5.728;2023-02-28T16:44:46;2.13;;;0.63;;
71368;SDS011;59175;53.214;5.728;2023-02-28T16:47:12;2.97;;;1.17;;
71368;SDS011;59175;53.214;5.728;2023-02-28T16:49:37;2.33;;;0.83;;
71368;SDS011;59175;53.214;5.728;2023-02-28T16:52:02;1.63;;;0.55;;
71368;SDS011;59175;53.214;5.728;2023-02-28T16:54:27;2.57;;;0.70;;
71368;SDS011;59175;53.214;5.728;2023-02-28T16:56:53;4.23;;;0.87;;
71368;SDS011;59175;53.214;5.728;2023-02-28T16:59:19;4.65;;;0.95;;
71368;SDS011;59175;53.214;5.728;2023-02-28T17:01:46;1.53;;;0.73;;
71368;SDS011;59175;53.214;5.728;2023-02-28T17:04:11;3.20;;;1.23;;
71368;SDS011;59175;53.214;5.728;2023-02-28T17:06:37;3.58;;;1.00;;
71368;SDS011;59175;53.214;5.728;2023-02-28T17:09:02;2.40;;;0.73;;
71368;SDS011;59175;53.214;5.728;2023-02-28T17:11:27;3.73;;;1.37;;
71368;SDS011;59175;53.214;5.728;2023-02-28T17:13:52;3.90;;;0.87;;
71368;SDS011;59175;53.214;5.728;2023-02-28T17:16:25;6.93;;;1.33;;
71368;SDS011;59175;53.214;5.728;2023-02-28T17:18:52;6.53;;;1.05;;
71368;SDS011;59175;53.214;5.728;2023-02-28T17:21:18;4.32;;;1.27;;
71368;SDS011;59175;53.214;5.728;2023-02-28T17:23:43;2.17;;;0.87;;
71368;SDS011;59175;53.214;5.728;2023-02-28T17:26:11;5.30;;;1.60;;